createdAt,value
2018-04-11T00:00:35.806Z,96.00
2018-04-11T00:03:03.142Z,96.10
2018-04-11T00:05:30.374Z,96.00
2018-04-11T00:07:57.045Z,96.00
2018-04-11T00:10:24.326Z,96.20
2018-04-11T00:13:02.193Z,96.20
2018-04-11T00:15:29.408Z,96.40
2018-04-11T00:17:56.133Z,96.20
2018-04-11T00:20:22.505Z,96.30
2018-04-11T00:22:48.962Z,96.70
2018-04-11T00:25:16.150Z,96.00
2018-04-11T00:27:42.626Z,96.00
2018-04-11T00:30:09.821Z,95.70
2018-04-11T00:32:36.470Z,95.70
2018-04-11T00:35:02.896Z,95.60
2018-04-11T00:37:29.444Z,95.50
2018-04-11T00:39:55.947Z,95.30
2018-04-11T00:42:22.511Z,95.10
2018-04-11T00:44:48.982Z,95.10
2018-04-11T00:47:15.425Z,95.30
2018-04-11T00:49:41.795Z,94.90
2018-04-11T00:52:08.406Z,94.70
2018-04-11T00:54:35.543Z,94.60
2018-04-11T00:57:01.994Z,94.60
2018-04-11T00:59:28.633Z,94.40
2018-04-11T01:01:55.209Z,94.60
2018-04-11T01:04:21.696Z,94.50
2018-04-11T01:06:48.264Z,94.80
2018-04-11T01:09:14.978Z,94.70
2018-04-11T01:11:41.497Z,94.70
2018-04-11T01:14:08.176Z,94.50
2018-04-11T01:16:34.723Z,94.60
2018-04-11T01:19:02.155Z,94.20
2018-04-11T01:21:28.717Z,94.20
2018-04-11T01:23:55.164Z,94.20
2018-04-11T01:26:21.728Z,94.50
2018-04-11T01:28:48.284Z,94.20
2018-04-11T01:31:14.692Z,94.10
2018-04-11T01:33:41.142Z,94.10
2018-04-11T01:36:08.561Z,93.90
2018-04-11T01:38:35.140Z,93.90
2018-04-11T01:41:01.600Z,93.60
2018-04-11T01:43:28.121Z,93.90
2018-04-11T01:45:54.658Z,93.90
2018-04-11T01:48:21.084Z,94.30
2018-04-11T01:50:48.558Z,94.10
2018-04-11T01:53:15.788Z,94.30
2018-04-11T01:55:42.175Z,94.30
2018-04-11T01:58:08.664Z,94.50
2018-04-11T02:00:35.833Z,94.40
2018-04-11T02:03:03.087Z,94.50
2018-04-11T02:05:29.592Z,94.50
2018-04-11T02:07:56.167Z,94.50
2018-04-11T02:10:22.670Z,94.70
2018-04-11T02:12:49.093Z,94.80
2018-04-11T02:15:15.683Z,94.60
2018-04-11T02:17:42.086Z,94.40
2018-04-11T02:20:08.508Z,94.50
2018-04-11T02:22:35.106Z,94.80
2018-04-11T02:25:01.561Z,94.80
2018-04-11T02:27:28.850Z,94.60
2018-04-11T02:29:55.282Z,94.60
2018-04-11T02:32:22.432Z,94.60
2018-04-11T02:34:48.856Z,94.60
2018-04-11T02:37:15.988Z,94.70
2018-04-11T02:39:42.414Z,94.60
2018-04-11T02:42:08.791Z,94.80
2018-04-11T02:44:35.964Z,94.90
2018-04-11T02:47:02.421Z,94.90
2018-04-11T02:49:28.859Z,94.30
2018-04-11T02:51:55.228Z,94.70
2018-04-11T02:54:22.320Z,95.00
2018-04-11T02:56:48.779Z,95.00
2018-04-11T02:59:15.252Z,95.30
2018-04-11T03:01:42.377Z,95.20
2018-04-11T03:04:08.752Z,95.20
2018-04-11T03:06:35.173Z,95.10
2018-04-11T03:09:01.673Z,94.50
2018-04-11T03:11:28.105Z,94.60
2018-04-11T03:13:54.537Z,94.80
2018-04-11T03:16:20.929Z,94.80
2018-04-11T03:18:47.359Z,95.00
2018-04-11T03:21:14.570Z,94.70
2018-04-11T03:23:41.824Z,95.00
2018-04-11T03:26:08.909Z,94.90
2018-04-11T03:28:35.351Z,94.90
2018-04-11T03:31:01.770Z,95.10
2018-04-11T03:33:28.200Z,95.00
2018-04-11T03:35:54.603Z,95.20
2018-04-11T03:38:22.495Z,94.90
2018-04-11T03:40:49.671Z,95.00
2018-04-11T03:43:16.068Z,95.00
2018-04-11T03:45:42.441Z,95.40
2018-04-11T03:48:09.061Z,95.70
2018-04-11T03:50:35.473Z,95.60
2018-04-11T03:53:02.643Z,95.40
2018-04-11T03:55:29.041Z,95.30
2018-04-11T03:57:55.412Z,95.60
2018-04-11T04:00:21.853Z,95.50
2018-04-11T04:02:48.297Z,95.90
2018-04-11T04:05:14.825Z,95.50
2018-04-11T04:07:41.300Z,95.80
2018-04-11T04:10:07.754Z,95.70
2018-04-11T04:12:34.889Z,96.00
2018-04-11T04:15:13.372Z,96.00
2018-04-11T04:17:55.930Z,96.30
2018-04-11T04:20:35.321Z,96.40
2018-04-11T04:23:01.655Z,96.10
2018-04-11T04:25:28.826Z,96.70
2018-04-11T04:27:55.263Z,96.70
2018-04-11T04:30:21.654Z,96.20
2018-04-11T04:32:48.155Z,96.30
2018-04-11T04:35:14.482Z,96.20
2018-04-11T04:37:41.635Z,96.60
2018-04-11T04:40:08.034Z,96.60
2018-04-11T04:42:34.360Z,96.70
2018-04-11T04:45:00.692Z,96.40
2018-04-11T04:47:27.023Z,97.40
2018-04-11T04:49:53.372Z,97.80
2018-04-11T04:52:19.694Z,98.00
2018-04-11T04:54:46.024Z,98.20
2018-04-11T04:57:12.339Z,97.60
2018-04-11T04:59:38.673Z,97.30
2018-04-11T05:02:05.000Z,97.40
2018-04-11T05:04:31.326Z,97.60
2018-04-11T05:06:57.656Z,97.10
2018-04-11T05:09:23.987Z,97.30
2018-04-11T05:11:50.307Z,97.70
2018-04-11T05:14:16.642Z,97.50
2018-04-11T05:16:42.971Z,97.20
2018-04-11T05:19:09.308Z,97.40
2018-04-11T05:21:35.635Z,97.90
2018-04-11T05:24:01.992Z,98.20
2018-04-11T05:26:28.374Z,98.30
2018-04-11T05:28:54.702Z,98.20
2018-04-11T05:31:21.786Z,97.70
2018-04-11T05:33:48.110Z,97.70
2018-04-11T05:36:14.467Z,97.80
2018-04-11T05:38:40.874Z,97.90
2018-04-11T05:41:07.237Z,98.00
2018-04-11T05:43:33.582Z,98.10
2018-04-11T05:45:59.923Z,98.00
2018-04-11T05:48:26.253Z,98.20
2018-04-11T05:50:53.347Z,98.20
2018-04-11T05:53:19.692Z,98.20
2018-04-11T05:55:46.030Z,98.30
2018-04-11T05:58:16.106Z,98.20
2018-04-11T06:00:42.424Z,98.20
2018-04-11T06:03:09.481Z,98.00
2018-04-11T06:05:35.805Z,98.00
2018-04-11T06:08:02.144Z,98.10
2018-04-11T06:10:28.468Z,98.00
2018-04-11T06:12:55.528Z,97.70
2018-04-11T06:15:21.846Z,97.70
2018-04-11T06:17:48.268Z,97.50
2018-04-11T06:20:14.593Z,97.40
2018-04-11T06:22:40.937Z,97.50
2018-04-11T06:25:08.008Z,97.50
2018-04-11T06:27:34.332Z,97.30
2018-04-11T06:30:01.400Z,96.90
2018-04-11T06:32:27.737Z,96.90
2018-04-11T06:34:54.065Z,96.70
2018-04-11T06:37:20.424Z,96.70
2018-04-11T06:39:46.763Z,96.60
2018-04-11T06:42:13.174Z,96.40
2018-04-11T06:44:39.571Z,96.40
2018-04-11T06:47:06.693Z,96.30
2018-04-11T06:49:33.047Z,96.30
2018-04-11T06:52:00.132Z,96.10
2018-04-11T06:54:26.451Z,96.10
2018-04-11T06:56:52.785Z,95.60
2018-04-11T06:59:19.133Z,95.50
2018-04-11T07:01:45.464Z,94.90
2018-04-11T07:04:11.803Z,95.30
2018-04-11T07:06:38.259Z,95.00
2018-04-11T07:09:05.551Z,95.50
2018-04-11T07:11:31.881Z,95.30
2018-04-11T07:13:58.259Z,95.40
2018-04-11T07:16:24.626Z,95.00
2018-04-11T07:18:51.793Z,94.80
2018-04-11T07:21:18.204Z,94.70
2018-04-11T07:23:44.828Z,94.70
2018-04-11T07:26:11.231Z,94.90
2018-04-11T07:28:37.632Z,95.80
2018-04-11T07:31:04.125Z,95.50
2018-04-11T07:33:30.750Z,95.30
2018-04-11T07:35:57.167Z,95.30
2018-04-11T07:38:27.358Z,95.70
2018-04-11T07:40:53.805Z,95.40
2018-04-11T07:43:21.017Z,95.20
2018-04-11T07:45:47.423Z,95.20
2018-04-11T07:48:13.883Z,94.60
2018-04-11T07:50:40.325Z,94.70
2018-04-11T07:53:06.674Z,94.20
2018-04-11T07:55:33.138Z,94.40
2018-04-11T07:57:59.523Z,94.30
2018-04-11T08:00:26.658Z,94.50
2018-04-11T08:02:53.078Z,94.20
2018-04-11T08:05:20.283Z,93.60
2018-04-11T08:07:46.808Z,93.60
2018-04-11T08:10:13.180Z,93.50
2018-04-11T08:12:39.598Z,93.00
2018-04-11T08:15:06.016Z,93.60
2018-04-11T08:17:32.356Z,92.60
2018-04-11T08:19:58.754Z,93.50
2018-04-11T08:22:25.139Z,93.30
2018-04-11T08:24:51.629Z,92.60
2018-04-11T08:27:18.135Z,92.20
2018-04-11T08:29:44.548Z,91.90
2018-04-11T08:32:11.752Z,92.60
2018-04-11T08:34:38.071Z,92.60
2018-04-11T08:37:05.131Z,91.40
2018-04-11T08:39:32.219Z,91.30
2018-04-11T08:41:58.556Z,91.30
2018-04-11T08:44:24.890Z,91.30
2018-04-11T08:46:51.221Z,91.50
2018-04-11T08:49:17.537Z,90.60
2018-04-11T08:51:43.879Z,88.60
2018-04-11T08:54:10.206Z,90.80
2018-04-11T08:56:36.544Z,89.30
2018-04-11T08:59:02.867Z,89.70
2018-04-11T09:01:29.259Z,90.10
2018-04-11T09:03:56.341Z,90.70
2018-04-11T09:06:22.681Z,90.60
2018-04-11T09:08:49.015Z,90.40
2018-04-11T09:11:15.339Z,89.70
2018-04-11T09:13:41.652Z,89.60
2018-04-11T09:16:07.981Z,90.10
2018-04-11T09:18:34.313Z,90.10
2018-04-11T09:21:00.655Z,88.90
2018-04-11T09:23:26.981Z,89.40
2018-04-11T09:25:53.304Z,88.40
2018-04-11T09:28:20.379Z,88.90
2018-04-11T09:30:46.734Z,88.90
2018-04-11T09:33:13.082Z,90.10
2018-04-11T09:35:39.395Z,90.10
2018-04-11T09:38:05.728Z,90.20
2018-04-11T09:40:32.096Z,88.10
2018-04-11T09:42:58.431Z,87.90
2018-04-11T09:45:25.502Z,88.60
2018-04-11T09:47:51.833Z,88.50
2018-04-11T09:50:18.154Z,90.20
2018-04-11T09:52:44.466Z,88.90
2018-04-11T09:55:10.834Z,86.00
2018-04-11T09:57:37.175Z,88.00
2018-04-11T10:00:03.495Z,87.20
2018-04-11T10:02:35.809Z,87.80
2018-04-11T10:05:02.126Z,86.70
2018-04-11T10:07:28.466Z,84.90
2018-04-11T10:09:54.810Z,86.50
2018-04-11T10:12:21.136Z,86.20
2018-04-11T10:14:47.467Z,87.20
2018-04-11T10:17:13.791Z,87.80
2018-04-11T10:19:40.123Z,88.80
2018-04-11T10:22:06.495Z,87.60
2018-04-11T10:24:33.591Z,88.80
2018-04-11T10:27:03.736Z,88.10
2018-04-11T10:29:30.054Z,88.60
2018-04-11T10:31:56.424Z,88.30
2018-04-11T10:34:22.751Z,88.20
2018-04-11T10:36:49.903Z,88.30
2018-04-11T10:39:17.062Z,89.40
2018-04-11T10:41:43.433Z,88.70
2018-04-11T10:44:09.832Z,86.40
2018-04-11T10:46:36.256Z,86.20
2018-04-11T10:49:02.628Z,87.80
2018-04-11T10:51:28.997Z,87.40
2018-04-11T10:53:56.148Z,87.70
2018-04-11T10:56:22.607Z,87.40
2018-04-11T10:58:49.051Z,86.30
2018-04-11T11:01:15.447Z,86.50
2018-04-11T11:03:41.881Z,87.50
2018-04-11T11:06:08.206Z,88.50
2018-04-11T11:08:34.562Z,89.00
2018-04-11T11:11:01.799Z,89.40
2018-04-11T11:13:28.237Z,89.40
2018-04-11T11:15:55.450Z,89.40
2018-04-11T11:18:21.847Z,88.70
2018-04-11T11:20:57.529Z,88.40
2018-04-11T11:23:23.964Z,88.00
2018-04-11T11:25:50.377Z,88.20
2018-04-11T11:28:16.850Z,88.90
2018-04-11T11:30:43.289Z,87.60
2018-04-11T11:33:09.713Z,86.90
2018-04-11T11:35:36.205Z,86.40
2018-04-11T11:38:02.557Z,86.70
2018-04-11T11:40:28.903Z,87.10
2018-04-11T11:42:55.283Z,85.90
2018-04-11T11:45:22.429Z,86.40
2018-04-11T11:47:49.572Z,85.80
2018-04-11T11:50:16.665Z,85.90
2018-04-11T11:52:43.101Z,85.80
2018-04-11T11:55:10.473Z,86.90
2018-04-11T11:57:40.655Z,84.70
2018-04-11T12:00:07.123Z,83.00
2018-04-11T12:02:33.596Z,84.40
2018-04-11T12:05:00.755Z,82.50
2018-04-11T12:07:27.039Z,82.20
2018-04-11T12:09:53.491Z,83.40
2018-04-11T12:12:19.958Z,83.80
2018-04-11T12:14:47.161Z,82.60
2018-04-11T12:17:13.513Z,82.60
2018-04-11T12:19:39.842Z,82.80
2018-04-11T12:22:06.164Z,82.20
2018-04-11T12:24:32.482Z,82.20
2018-04-11T12:26:58.824Z,78.80
2018-04-11T12:29:25.141Z,79.70
2018-04-11T12:31:51.471Z,80.40
2018-04-11T12:34:17.795Z,81.60
2018-04-11T12:36:44.138Z,80.90
2018-04-11T12:39:10.463Z,81.60
2018-04-11T12:41:36.809Z,82.90
2018-04-11T12:44:03.124Z,81.80
2018-04-11T12:46:29.462Z,85.40
2018-04-11T12:48:55.781Z,82.70
2018-04-11T12:51:22.138Z,84.60
2018-04-11T12:53:48.499Z,85.20
2018-04-11T12:56:14.821Z,86.10
2018-04-11T12:58:41.138Z,87.80
2018-04-11T13:01:07.502Z,87.90
2018-04-11T13:03:33.829Z,88.10
2018-04-11T13:06:00.933Z,89.50
2018-04-11T13:08:27.256Z,89.30
2018-04-11T13:10:53.619Z,88.00
2018-04-11T13:13:19.941Z,88.30
2018-04-11T13:15:46.269Z,88.90
2018-04-11T13:18:13.385Z,87.20
2018-04-11T13:20:39.697Z,87.10
2018-04-11T13:23:06.029Z,84.20
2018-04-11T13:25:33.091Z,83.90
2018-04-11T13:27:59.405Z,83.90
2018-04-11T13:30:26.495Z,85.60
2018-04-11T13:32:52.817Z,85.60
2018-04-11T13:35:19.148Z,85.00
2018-04-11T13:37:45.656Z,85.10
2018-04-11T13:40:12.015Z,85.20
2018-04-11T13:42:38.375Z,83.60
2018-04-11T13:45:04.725Z,83.40
2018-04-11T13:47:31.112Z,82.20
2018-04-11T13:49:57.455Z,83.00
2018-04-11T13:52:23.777Z,82.10
2018-04-11T13:54:50.095Z,84.00
2018-04-11T13:57:16.435Z,83.00
2018-04-11T13:59:42.777Z,81.30
2018-04-11T14:02:09.096Z,82.40
2018-04-11T14:04:35.460Z,82.40
2018-04-11T14:07:01.801Z,83.10
2018-04-11T14:09:28.197Z,83.80
2018-04-11T14:11:54.535Z,84.90
2018-04-11T14:14:20.881Z,85.30
2018-04-11T14:16:47.279Z,85.00
2018-04-11T14:19:13.619Z,84.80
2018-04-11T14:21:39.986Z,84.10
2018-04-11T14:24:06.523Z,84.80
2018-04-11T14:26:32.857Z,84.50
2018-04-11T14:28:59.225Z,84.70
2018-04-11T14:31:26.307Z,84.80
2018-04-11T14:33:52.659Z,84.70
2018-04-11T14:36:19.761Z,86.00
2018-04-11T14:38:46.119Z,86.00
2018-04-11T14:41:12.506Z,86.40
2018-04-11T14:43:38.887Z,85.70
2018-04-11T14:46:05.219Z,85.60
2018-04-11T14:48:32.318Z,83.90
2018-04-11T14:50:59.381Z,84.60
2018-04-11T14:53:25.765Z,84.50
2018-04-11T14:55:52.120Z,85.10
2018-04-11T14:58:18.460Z,84.30
2018-04-11T15:00:45.559Z,84.10
2018-04-11T15:03:11.916Z,83.90
2018-04-11T15:05:38.248Z,84.00
2018-04-11T15:08:04.580Z,84.70
2018-04-11T15:10:30.946Z,85.00
2018-04-11T15:12:57.308Z,84.30
2018-04-11T15:15:23.652Z,85.20
2018-04-11T15:17:50.762Z,84.80
2018-04-11T15:20:17.835Z,84.80
2018-04-11T15:22:44.139Z,84.80
2018-04-11T15:25:11.215Z,84.00
2018-04-11T15:27:37.586Z,83.90
2018-04-11T15:30:03.920Z,84.80
2018-04-11T15:32:30.238Z,84.30
2018-04-11T15:34:56.587Z,84.50
2018-04-11T15:37:22.948Z,84.10
2018-04-11T15:39:49.371Z,83.80
2018-04-11T15:42:15.753Z,83.70
2018-04-11T15:44:42.092Z,81.90
2018-04-11T15:47:08.412Z,83.60
2018-04-11T15:49:34.744Z,82.20
2018-04-11T15:52:01.093Z,82.50
2018-04-11T15:54:27.415Z,82.20
2018-04-11T15:56:53.764Z,81.80
2018-04-11T15:59:20.089Z,81.90
2018-04-11T16:01:46.398Z,82.50
2018-04-11T16:04:12.719Z,81.80
2018-04-11T16:06:39.087Z,80.90
2018-04-11T16:09:05.400Z,82.10
2018-04-11T16:11:31.722Z,83.00
2018-04-11T16:13:58.084Z,81.80
2018-04-11T16:16:24.424Z,81.60
2018-04-11T16:18:50.793Z,81.40
2018-04-11T16:21:17.118Z,82.00
2018-04-11T16:23:43.450Z,82.00
2018-04-11T16:26:09.767Z,82.00
2018-04-11T16:28:36.851Z,81.30
2018-04-11T16:31:03.218Z,81.30
2018-04-11T16:33:29.532Z,82.10
2018-04-11T16:35:55.870Z,81.50
2018-04-11T16:38:22.206Z,80.20
2018-04-11T16:40:48.535Z,77.70
2018-04-11T16:43:14.892Z,75.80
2018-04-11T16:45:41.980Z,71.60
2018-04-11T16:48:08.320Z,71.60
2018-04-11T16:50:34.646Z,73.10
2018-04-11T16:53:01.845Z,71.70
2018-04-11T16:55:28.168Z,72.90
2018-04-11T16:57:54.505Z,73.50
2018-04-11T17:00:20.828Z,75.80
2018-04-11T17:02:47.148Z,77.20
2018-04-11T17:05:13.489Z,78.60
2018-04-11T17:07:39.834Z,79.30
2018-04-11T17:10:06.222Z,79.70
2018-04-11T17:12:32.567Z,79.20
2018-04-11T17:14:58.931Z,80.00
2018-04-11T17:17:25.311Z,79.90
2018-04-11T17:19:51.662Z,81.20
2018-04-11T17:22:30.349Z,82.00
2018-04-11T17:25:08.915Z,83.10
2018-04-11T17:27:47.552Z,83.70
2018-04-11T17:30:26.153Z,84.40
2018-04-11T17:32:52.509Z,84.70
2018-04-11T17:35:18.847Z,85.00
2018-04-11T17:37:45.920Z,86.50
2018-04-11T17:40:12.230Z,85.50
2018-04-11T17:42:39.320Z,86.40
2018-04-11T17:45:05.681Z,85.90
2018-04-11T17:47:32.021Z,86.30
2018-04-11T17:49:58.424Z,86.80
2018-04-11T17:52:24.746Z,87.10
2018-04-11T17:54:51.092Z,86.90
2018-04-11T17:57:17.491Z,87.30
2018-04-11T17:59:43.924Z,87.30
2018-04-11T18:02:11.042Z,88.00
2018-04-11T18:04:37.450Z,88.00
2018-04-11T18:07:03.850Z,88.00
2018-04-11T18:09:30.285Z,88.30
2018-04-11T18:11:56.684Z,88.60
2018-04-11T18:14:23.759Z,89.20
2018-04-11T18:16:50.131Z,89.10
2018-04-11T18:19:16.468Z,89.60
2018-04-11T18:21:42.811Z,89.80
2018-04-11T18:24:09.211Z,90.00
2018-04-11T18:26:35.601Z,90.30
2018-04-11T18:29:01.996Z,90.40
2018-04-11T18:31:28.425Z,90.50
2018-04-11T18:33:55.579Z,90.70
2018-04-11T18:36:21.949Z,90.70
2018-04-11T18:38:49.095Z,91.20
2018-04-11T18:41:16.230Z,91.10
2018-04-11T18:43:42.641Z,91.10
2018-04-11T18:46:09.825Z,91.40
2018-04-11T18:48:36.933Z,91.40
2018-04-11T18:51:03.293Z,91.40
2018-04-11T18:53:29.656Z,91.40
2018-04-11T18:55:55.980Z,91.40
2018-04-11T18:58:23.155Z,91.30
2018-04-11T19:00:49.536Z,91.30
2018-04-11T19:03:15.969Z,91.40
2018-04-11T19:05:42.465Z,91.30
2018-04-11T19:08:08.842Z,91.30
2018-04-11T19:10:35.254Z,91.30
2018-04-11T19:13:01.670Z,91.50
2018-04-11T19:15:28.054Z,91.30
2018-04-11T19:17:55.211Z,91.50
2018-04-11T19:20:21.749Z,91.40
2018-04-11T19:22:48.859Z,91.20
2018-04-11T19:25:15.257Z,91.20
2018-04-11T19:27:41.669Z,91.40
2018-04-11T19:30:08.879Z,91.60
2018-04-11T19:32:35.267Z,91.60
2018-04-11T19:35:01.622Z,91.40
2018-04-11T19:37:27.987Z,91.40
2018-04-11T19:39:55.106Z,91.30
2018-04-11T19:42:21.848Z,91.30
2018-04-11T19:44:48.268Z,91.30
2018-04-11T19:47:14.701Z,91.20
2018-04-11T19:49:41.157Z,91.50
2018-04-11T19:52:07.586Z,91.30
2018-04-11T19:54:33.989Z,91.60
2018-04-11T19:57:00.368Z,91.30
2018-04-11T19:59:26.795Z,91.50
2018-04-11T20:01:53.961Z,91.40
2018-04-11T20:04:21.881Z,91.40
2018-04-11T20:06:48.303Z,91.40
2018-04-11T20:09:14.653Z,91.40
2018-04-11T20:11:41.093Z,91.60
2018-04-11T20:14:07.529Z,91.70
2018-04-11T20:16:33.993Z,91.60
2018-04-11T20:19:00.435Z,91.80
2018-04-11T20:21:26.937Z,91.80
2018-04-11T20:23:53.353Z,91.60
2018-04-11T20:26:19.732Z,91.70
2018-04-11T20:28:46.197Z,91.80
2018-04-11T20:31:12.588Z,91.90
2018-04-11T20:33:38.987Z,91.80
2018-04-11T20:36:05.418Z,92.00
2018-04-11T20:38:31.839Z,91.90
2018-04-11T20:40:58.260Z,91.90
2018-04-11T20:43:24.695Z,92.00
2018-04-11T20:45:51.083Z,92.20
2018-04-11T20:48:17.902Z,92.10
2018-04-11T20:50:44.304Z,92.10
2018-04-11T20:53:10.682Z,92.10
2018-04-11T20:55:37.106Z,92.10
2018-04-11T20:58:03.551Z,92.30
2018-04-11T21:00:29.952Z,92.40
2018-04-11T21:02:56.352Z,92.30
2018-04-11T21:05:22.798Z,92.50
2018-04-11T21:07:49.954Z,92.60
2018-04-11T21:10:17.157Z,92.60
2018-04-11T21:12:43.529Z,92.60
2018-04-11T21:15:09.930Z,92.70
2018-04-11T21:17:36.292Z,92.60
2018-04-11T21:20:02.692Z,92.90
2018-04-11T21:22:29.053Z,92.90
2018-04-11T21:24:55.478Z,93.00
2018-04-11T21:27:21.859Z,93.00
2018-04-11T21:29:48.252Z,93.10
2018-04-11T21:32:15.368Z,92.70
2018-04-11T21:34:41.735Z,92.70
2018-04-11T21:37:08.857Z,92.90
2018-04-11T21:39:35.219Z,92.90
2018-04-11T21:42:02.368Z,92.90
2018-04-11T21:47:16.329Z,93.00
2018-04-11T21:58:23.303Z,93.60
2018-04-11T22:00:49.652Z,93.80
2018-04-11T22:03:16.019Z,93.30
2018-04-11T22:05:42.371Z,93.50
2018-04-11T22:08:08.739Z,93.90
2018-04-11T22:10:35.115Z,94.10
2018-04-11T22:13:01.475Z,94.20
2018-04-11T22:15:27.825Z,94.00
2018-04-11T22:17:54.200Z,93.70
2018-04-11T22:20:20.592Z,94.20
2018-04-11T22:22:46.955Z,94.20
2018-04-11T22:25:13.315Z,94.70
2018-04-11T22:27:40.451Z,94.40
2018-04-11T22:30:06.811Z,94.30
2018-04-11T22:32:33.219Z,94.80
2018-04-11T22:35:00.331Z,94.10
2018-04-11T22:37:26.703Z,94.10
2018-04-11T22:39:53.051Z,94.70
2018-04-11T22:42:20.164Z,95.30
2018-04-11T22:44:46.503Z,95.20
2018-04-11T22:47:12.920Z,95.10
2018-04-11T22:49:39.317Z,95.40
2018-04-11T22:52:05.690Z,95.10
2018-04-11T22:54:32.082Z,94.90
2018-04-11T22:56:58.479Z,94.60
2018-04-11T22:59:25.619Z,95.60
2018-04-11T23:01:52.012Z,95.30
2018-04-11T23:04:18.376Z,95.60
2018-04-11T23:06:44.747Z,95.60
2018-04-11T23:09:11.857Z,95.30
2018-04-11T23:11:38.235Z,95.30
2018-04-11T23:14:04.632Z,95.50
2018-04-11T23:16:31.022Z,95.90
2018-04-11T23:18:57.401Z,95.90
2018-04-11T23:21:23.761Z,96.10
2018-04-11T23:23:50.191Z,95.50
2018-04-11T23:26:17.357Z,96.00
2018-04-11T23:28:43.713Z,96.00
2018-04-11T23:31:10.072Z,96.10
2018-04-11T23:33:36.455Z,96.10
2018-04-11T23:36:02.844Z,96.00
2018-04-11T23:38:29.259Z,96.10
2018-04-11T23:40:55.638Z,96.00
2018-04-11T23:43:22.776Z,96.50
2018-04-11T23:45:49.884Z,96.30
2018-04-11T23:48:19.723Z,96.30
2018-04-11T23:50:46.897Z,95.90
2018-04-11T23:53:13.290Z,96.10
2018-04-11T23:55:39.662Z,96.40
2018-04-11T23:58:06.759Z,96.60
